Aviation Digital Data Service (ADDS)

Output produced by METARs form (0222 UTC 15 August 2020)
found at http://www.aviationweather.gov/metar/data/
 
METAR text: RJSI 150200Z 21006KT 170V260 9999 -SHRA FEW010 SCT020 BKN030 29/25 Q1004
Conditions at: RJSI (HANAMAKI AIRPORT, JP) observed 0200 UTC 15 August 2020
Temperature: 29.0°C (84°F)
Dewpoint: 25.0°C (77°F) [RH = 79%]
Pressure (altimeter): 29.65 inches Hg (1004.0 mb)
Winds: from the SSW (210 degrees) at 7 MPH (6 knots; 3.1 m/s)
Visibility: 6 or more miles (10+ km)
Ceiling: 3000 feet AGL
Clouds: few clouds at 1000 feet AGL
scattered clouds at 2000 feet AGL
broken clouds at 3000 feet AGL
Weather: -SHRA  (light rain showers)

METAR text: RJSI 150100Z VRB03KT 9999 FEW010 SCT030 BKN040 29/24 Q1005
Conditions at: RJSI (HANAMAKI AIRPORT, JP) observed 0100 UTC 15 August 2020
Temperature: 29.0°C (84°F)
Dewpoint: 24.0°C (75°F) [RH = 74%]
Pressure (altimeter): 29.68 inches Hg (1005.0 mb)
Winds: variable direction winds at 3 MPH (3 knots; 1.5 m/s)
Visibility: 6 or more miles (10+ km)
Ceiling: 4000 feet AGL
Clouds: few clouds at 1000 feet AGL
scattered clouds at 3000 feet AGL
broken clouds at 4000 feet AGL
Weather: no significant weather observed at this time

METAR text: RJSI 150000Z 18005KT 110V240 9999 FEW010 SCT030 BKN040 29/25 Q1005
Conditions at: RJSI (HANAMAKI AIRPORT, JP) observed 0000 UTC 15 August 2020
Temperature: 29.0°C (84°F)
Dewpoint: 25.0°C (77°F) [RH = 79%]
Pressure (altimeter): 29.68 inches Hg (1005.0 mb)
Winds: from the S (180 degrees) at 6 MPH (5 knots; 2.6 m/s)
Visibility: 6 or more miles (10+ km)
Ceiling: 4000 feet AGL
Clouds: few clouds at 1000 feet AGL
scattered clouds at 3000 feet AGL
broken clouds at 4000 feet AGL
Weather: no significant weather observed at this time

METAR text: RJSI 142300Z 15005KT 120V200 9999 FEW004 SCT030 BKN130 26/23 Q1005
Conditions at: RJSI (HANAMAKI AIRPORT, JP) observed 2300 UTC 14 August 2020
Temperature: 26.0°C (79°F)
Dewpoint: 23.0°C (73°F) [RH = 84%]
Pressure (altimeter): 29.68 inches Hg (1005.0 mb)
Winds: from the SSE (150 degrees) at 6 MPH (5 knots; 2.6 m/s)
Visibility: 6 or more miles (10+ km)
Ceiling: 13000 feet AGL
Clouds: few clouds at 400 feet AGL
scattered clouds at 3000 feet AGL
broken clouds at 13000 feet AGL
Weather: no significant weather observed at this time

METAR text: RJSI 142240Z 13004KT 090V170 9999 FEW004 SCT008 BKN130 26/24 Q1006 RMK 1ST004 3ST008 5AC130 A2971
Conditions at: RJSI (HANAMAKI AIRPORT, JP) observed 2240 UTC 14 August 2020
Temperature: 26.0°C (79°F)
Dewpoint: 24.0°C (75°F) [RH = 89%]
Pressure (altimeter): 29.70 inches Hg (1006.0 mb)
Winds: from the SE (130 degrees) at 5 MPH (4 knots; 2.1 m/s)
Visibility: 6 or more miles (10+ km)
Ceiling: 13000 feet AGL
Clouds: few clouds at 400 feet AGL
scattered clouds at 800 feet AGL
broken clouds at 13000 feet AGL
Weather: no significant weather observed at this time

METAR text: RJSI 141000Z 16010KT 2000 -SHRA BR FEW002 BKN008 BKN020 22/22 Q1008
Conditions at: RJSI (HANAMAKI AIRPORT, JP) observed 1000 UTC 14 August 2020
Temperature: 22.0°C (72°F)
Dewpoint: 22.0°C (72°F) [RH = 100%]
Pressure (altimeter): 29.76 inches Hg (1008.0 mb)
Winds: from the SSE (160 degrees) at 12 MPH (10 knots; 5.1 m/s)
Visibility: 1.24 miles (2.00 km)
Ceiling: 800 feet AGL
Clouds: few clouds at 200 feet AGL
broken clouds at 800 feet AGL
broken clouds at 2000 feet AGL
Weather: -SHRA BR  (light rain showers, mist)

METAR text: RJSI 140905Z 15006KT 2000 SHRA BR FEW003 SCT008 BKN020 23/22 Q1008 RMK 1ST003 4ST008 6CU020 A2978
Conditions at: RJSI (HANAMAKI AIRPORT, JP) observed 0905 UTC 14 August 2020
Temperature: 23.0°C (73°F)
Dewpoint: 22.0°C (72°F) [RH = 94%]
Pressure (altimeter): 29.76 inches Hg (1008.0 mb)
Winds: from the SSE (150 degrees) at 7 MPH (6 knots; 3.1 m/s)
Visibility: 1.24 miles (2.00 km)
Ceiling: 2000 feet AGL
Clouds: few clouds at 300 feet AGL
scattered clouds at 800 feet AGL
broken clouds at 2000 feet AGL
Weather: SHRA BR  (rain showers, mist)

METAR text: RJSI 140900Z 15006KT 120V180 4000 -SHRA BR FEW008 SCT015 BKN025 23/22 Q1008
Conditions at: RJSI (HANAMAKI AIRPORT, JP) observed 0900 UTC 14 August 2020
Temperature: 23.0°C (73°F)
Dewpoint: 22.0°C (72°F) [RH = 94%]
Pressure (altimeter): 29.76 inches Hg (1008.0 mb)
Winds: from the SSE (150 degrees) at 7 MPH (6 knots; 3.1 m/s)
Visibility: 2.49 miles (4.01 km)
Ceiling: 2500 feet AGL
Clouds: few clouds at 800 feet AGL
scattered clouds at 1500 feet AGL
broken clouds at 2500 feet AGL
Weather: -SHRA BR  (light rain showers, mist)

METAR text: RJSI 140839Z 15006KT 130V200 4000 -SHRA BR FEW008 SCT015 BKN030 24/22 Q1008 RMK 1ST008 4CU015 6CU030 A2977
Conditions at: RJSI (HANAMAKI AIRPORT, JP) observed 0839 UTC 14 August 2020
Temperature: 24.0°C (75°F)
Dewpoint: 22.0°C (72°F) [RH = 89%]
Pressure (altimeter): 29.76 inches Hg (1008.0 mb)
Winds: from the SSE (150 degrees) at 7 MPH (6 knots; 3.1 m/s)
Visibility: 2.49 miles (4.01 km)
Ceiling: 3000 feet AGL
Clouds: few clouds at 800 feet AGL
scattered clouds at 1500 feet AGL
broken clouds at 3000 feet AGL
Weather: -SHRA BR  (light rain showers, mist)

METAR text: RJSI 140820Z 17011KT 130V200 8000 -SHRA FEW010 SCT020 BKN030 24/22 Q1008 RMK 1ST010 4CU020 6CU030 A2977
Conditions at: RJSI (HANAMAKI AIRPORT, JP) observed 0820 UTC 14 August 2020
Temperature: 24.0°C (75°F)
Dewpoint: 22.0°C (72°F) [RH = 89%]
Pressure (altimeter): 29.76 inches Hg (1008.0 mb)
Winds: from the S (170 degrees) at 13 MPH (11 knots; 5.7 m/s)
Visibility: 5 miles ( 8 km)
Ceiling: 3000 feet AGL
Clouds: few clouds at 1000 feet AGL
scattered clouds at 2000 feet AGL
broken clouds at 3000 feet AGL
Weather: -SHRA  (light rain showers)

METAR text: RJSI 140800Z 18016KT 4000 SHRA BR FEW008 SCT020 BKN030 24/22 Q1007
Conditions at: RJSI (HANAMAKI AIRPORT, JP) observed 0800 UTC 14 August 2020
Temperature: 24.0°C (75°F)
Dewpoint: 22.0°C (72°F) [RH = 89%]
Pressure (altimeter): 29.73 inches Hg (1007.0 mb)
Winds: from the S (180 degrees) at 18 MPH (16 knots; 8.2 m/s)
Visibility: 2.49 miles (4.01 km)
Ceiling: 3000 feet AGL
Clouds: few clouds at 800 feet AGL
scattered clouds at 2000 feet AGL
broken clouds at 3000 feet AGL
Weather: SHRA BR  (rain showers, mist)

METAR text: RJSI 140748Z 19016KT 4000 -SHRA BR FEW010 SCT020 BKN030 25/23 Q1007 RMK 1ST010 4CU020 6CU030 A2976
Conditions at: RJSI (HANAMAKI AIRPORT, JP) observed 0748 UTC 14 August 2020
Temperature: 25.0°C (77°F)
Dewpoint: 23.0°C (73°F) [RH = 89%]
Pressure (altimeter): 29.73 inches Hg (1007.0 mb)
Winds: from the S (190 degrees) at 18 MPH (16 knots; 8.2 m/s)
Visibility: 2.49 miles (4.01 km)
Ceiling: 3000 feet AGL
Clouds: few clouds at 1000 feet AGL
scattered clouds at 2000 feet AGL
broken clouds at 3000 feet AGL
Weather: -SHRA BR  (light rain showers, mist)

METAR text: RJSI 140700Z 18016KT 9999 VCSH FEW020 SCT030 BKN040 26/23 Q1007
Conditions at: RJSI (HANAMAKI AIRPORT, JP) observed 0700 UTC 14 August 2020
Temperature: 26.0°C (79°F)
Dewpoint: 23.0°C (73°F) [RH = 84%]
Pressure (altimeter): 29.73 inches Hg (1007.0 mb)
Winds: from the S (180 degrees) at 18 MPH (16 knots; 8.2 m/s)
Visibility: 6 or more miles (10+ km)
Ceiling: 4000 feet AGL
Clouds: few clouds at 2000 feet AGL
scattered clouds at 3000 feet AGL
broken clouds at 4000 feet AGL
Weather: VCSH  (showers in vicinity)

METAR text: RJSI 140600Z 19010KT 9999 -SHRA FEW030 SCT040 BKN070 28/24 Q1007
Conditions at: RJSI (HANAMAKI AIRPORT, JP) observed 0600 UTC 14 August 2020
Temperature: 28.0°C (82°F)
Dewpoint: 24.0°C (75°F) [RH = 79%]
Pressure (altimeter): 29.73 inches Hg (1007.0 mb)
Winds: from the S (190 degrees) at 12 MPH (10 knots; 5.1 m/s)
Visibility: 6 or more miles (10+ km)
Ceiling: 7000 feet AGL
Clouds: few clouds at 3000 feet AGL
scattered clouds at 4000 feet AGL
broken clouds at 7000 feet AGL
Weather: -SHRA  (light rain showers)

METAR text: RJSI 140500Z 13007KT 110V170 9999 FEW030 SCT040 BKN140 29/23 Q1007
Conditions at: RJSI (HANAMAKI AIRPORT, JP) observed 0500 UTC 14 August 2020
Temperature: 29.0°C (84°F)
Dewpoint: 23.0°C (73°F) [RH = 70%]
Pressure (altimeter): 29.73 inches Hg (1007.0 mb)
Winds: from the SE (130 degrees) at 8 MPH (7 knots; 3.6 m/s)
Visibility: 6 or more miles (10+ km)
Ceiling: 14000 feet AGL
Clouds: few clouds at 3000 feet AGL
scattered clouds at 4000 feet AGL
broken clouds at 14000 feet AGL
Weather: no significant weather observed at this time

METAR text: RJSI 140400Z 17005KT 120V220 9999 FEW020 BKN030 BKN140 28/23 Q1008
Conditions at: RJSI (HANAMAKI AIRPORT, JP) observed 0400 UTC 14 August 2020
Temperature: 28.0°C (82°F)
Dewpoint: 23.0°C (73°F) [RH = 74%]
Pressure (altimeter): 29.76 inches Hg (1008.0 mb)
Winds: from the S (170 degrees) at 6 MPH (5 knots; 2.6 m/s)
Visibility: 6 or more miles (10+ km)
Ceiling: 3000 feet AGL
Clouds: few clouds at 2000 feet AGL
broken clouds at 3000 feet AGL
broken clouds at 14000 feet AGL
Weather: no significant weather observed at this time

METAR text: RJSI 140300Z 18007KT 9999 FEW020 SCT030 BKN140 28/22 Q1008
Conditions at: RJSI (HANAMAKI AIRPORT, JP) observed 0300 UTC 14 August 2020
Temperature: 28.0°C (82°F)
Dewpoint: 22.0°C (72°F) [RH = 70%]
Pressure (altimeter): 29.76 inches Hg (1008.0 mb)
Winds: from the S (180 degrees) at 8 MPH (7 knots; 3.6 m/s)
Visibility: 6 or more miles (10+ km)
Ceiling: 14000 feet AGL
Clouds: few clouds at 2000 feet AGL
scattered clouds at 3000 feet AGL
broken clouds at 14000 feet AGL
Weather: no significant weather observed at this time

METAR text: RJSI 140200Z 18009KT 9999 FEW030 BKN150 28/21 Q1009
Conditions at: RJSI (HANAMAKI AIRPORT, JP) observed 0200 UTC 14 August 2020
Temperature: 28.0°C (82°F)
Dewpoint: 21.0°C (70°F) [RH = 66%]
Pressure (altimeter): 29.79 inches Hg (1009.0 mb)
Winds: from the S (180 degrees) at 10 MPH (9 knots; 4.6 m/s)
Visibility: 6 or more miles (10+ km)
Ceiling: 15000 feet AGL
Clouds: few clouds at 3000 feet AGL
broken clouds at 15000 feet AGL
Weather: no significant weather observed at this time

METAR text: RJSI 140100Z 18007KT 130V220 9999 FEW030 SCT/// 28/22 Q1009
Conditions at: RJSI (HANAMAKI AIRPORT, JP) observed 0100 UTC 14 August 2020
Temperature: 28.0°C (82°F)
Dewpoint: 22.0°C (72°F) [RH = 70%]
Pressure (altimeter): 29.79 inches Hg (1009.0 mb)
Winds: from the S (180 degrees) at 8 MPH (7 knots; 3.6 m/s)
Visibility: 6 or more miles (10+ km)
Ceiling: at least 12,000 feet AGL
Clouds: few clouds at 3000 feet AGL
Weather: no significant weather observed at this time

METAR text: RJSI 140000Z 19005KT 160V250 9999 FEW020 SCT/// 26/21 Q1010
Conditions at: RJSI (HANAMAKI AIRPORT, JP) observed 0000 UTC 14 August 2020
Temperature: 26.0°C (79°F)
Dewpoint: 21.0°C (70°F) [RH = 74%]
Pressure (altimeter): 29.82 inches Hg (1010.0 mb)
Winds: from the S (190 degrees) at 6 MPH (5 knots; 2.6 m/s)
Visibility: 6 or more miles (10+ km)
Ceiling: at least 12,000 feet AGL
Clouds: few clouds at 2000 feet AGL
Weather: no significant weather observed at this time

METAR text: RJSI 132300Z 19004KT 160V240 9999 FEW030 BKN/// 23/20 Q1010
Conditions at: RJSI (HANAMAKI AIRPORT, JP) observed 2300 UTC 13 August 2020
Temperature: 23.0°C (73°F)
Dewpoint: 20.0°C (68°F) [RH = 83%]
Pressure (altimeter): 29.82 inches Hg (1010.0 mb)
Winds: from the S (190 degrees) at 5 MPH (4 knots; 2.1 m/s)
Visibility: 6 or more miles (10+ km)
Ceiling: at least 12,000 feet AGL
Clouds: few clouds at 3000 feet AGL
Weather: no significant weather observed at this time

METAR text: RJSI 132240Z VRB02KT 9999 FEW030 BKN/// 23/20 Q1010 RMK 1CU030 A2983
Conditions at: RJSI (HANAMAKI AIRPORT, JP) observed 2240 UTC 13 August 2020
Temperature: 23.0°C (73°F)
Dewpoint: 20.0°C (68°F) [RH = 83%]
Pressure (altimeter): 29.82 inches Hg (1010.0 mb)
Winds: variable direction winds at 2 MPH (2 knots; 1.0 m/s)
Visibility: 6 or more miles (10+ km)
Ceiling: at least 12,000 feet AGL
Clouds: few clouds at 3000 feet AGL
Weather: no significant weather observed at this time

Forecast for: RJSI (HANAMAKI AIRPORT, JP)
Text: TAF RJSI 142305Z 1500/1606 27008KT 9999 FEW010 BKN020 BKN030
Forecast period: 0000 UTC 15 August 2020 to 0600 UTC 16 August 2020
Forecast type: FROM: standard forecast or significant change
Winds: from the W (270 degrees) at 9 MPH (8 knots; 4.1 m/s)
Visibility: 6 or more miles (10+ km)
Ceiling: 2000 feet AGL
Clouds: few clouds at 1000 feet AGL
broken clouds at 2000 feet AGL
broken clouds at 3000 feet AGL
Weather: no significant weather forecast for this period
Text: TEMPO 1501/1504 4000 SHRA BR
Forecast period: 0100 to 0400 UTC 15 August 2020
Forecast type: TEMPORARY: The following changes expected for less than half the time period
Visibility: 2.49 miles (4.01 km)
Ceiling: unknown
Clouds: missing
Weather: SHRA BR  (rain showers, mist)